sensor_id;sensor_type;location;lat;lon;timestamp;pressure;altitude;pressure_sealevel;temperature;humidity
52249;BME280;38541;48.130;8.378;2024-03-08T00:00:27;92411.47;;;3.38;73.43
52249;BME280;38541;48.130;8.378;2024-03-08T00:02:54;92399.50;;;3.37;73.51
52249;BME280;38541;48.130;8.378;2024-03-08T00:05:20;92399.16;;;3.34;73.39
52249;BME280;38541;48.130;8.378;2024-03-08T00:07:47;92402.09;;;3.37;73.74
52249;BME280;38541;48.130;8.378;2024-03-08T00:10:14;92391.81;;;3.42;73.71
52249;BME280;38541;48.130;8.378;2024-03-08T00:12:43;92397.22;;;3.41;73.61
52249;BME280;38541;48.130;8.378;2024-03-08T00:15:12;92398.47;;;3.38;73.71
52249;BME280;38541;48.130;8.378;2024-03-08T00:17:42;92395.31;;;3.36;73.62
52249;BME280;38541;48.130;8.378;2024-03-08T00:20:09;92388.53;;;3.35;73.67
52249;BME280;38541;48.130;8.378;2024-03-08T00:22:39;92389.56;;;3.34;73.56
52249;BME280;38541;48.130;8.378;2024-03-08T00:25:06;92392.38;;;3.33;73.50
52249;BME280;38541;48.130;8.378;2024-03-08T00:27:36;92386.16;;;3.34;73.55
52249;BME280;38541;48.130;8.378;2024-03-08T00:30:03;92391.34;;;3.34;73.55
52249;BME280;38541;48.130;8.378;2024-03-08T00:32:29;92389.22;;;3.31;72.56
52249;BME280;38541;48.130;8.378;2024-03-08T00:34:58;92379.84;;;3.30;73.17
52249;BME280;38541;48.130;8.378;2024-03-08T00:37:24;92374.19;;;3.33;73.46
52249;BME280;38541;48.130;8.378;2024-03-08T00:39:51;92382.19;;;3.31;72.90
52249;BME280;38541;48.130;8.378;2024-03-08T00:42:18;92369.81;;;3.33;73.15
52249;BME280;38541;48.130;8.378;2024-03-08T00:44:46;92368.78;;;3.34;73.10
52249;BME280;38541;48.130;8.378;2024-03-08T00:47:14;92365.63;;;3.32;73.23
52249;BME280;38541;48.130;8.378;2024-03-08T00:49:41;92362.25;;;3.32;72.91
52249;BME280;38541;48.130;8.378;2024-03-08T00:52:08;92359.84;;;3.30;72.84
52249;BME280;38541;48.130;8.378;2024-03-08T00:54:35;92365.50;;;3.27;72.88
52249;BME280;38541;48.130;8.378;2024-03-08T00:57:04;92361.78;;;3.23;72.25
52249;BME280;38541;48.130;8.378;2024-03-08T00:59:33;92356.50;;;3.18;72.54
52249;BME280;38541;48.130;8.378;2024-03-08T01:02:00;92362.25;;;3.20;72.59
52249;BME280;38541;48.130;8.378;2024-03-08T01:04:27;92349.25;;;3.20;72.68
52249;BME280;38541;48.130;8.378;2024-03-08T01:06:57;92347.13;;;3.17;72.58
52249;BME280;38541;48.130;8.378;2024-03-08T01:09:24;92345.53;;;3.16;72.51
52249;BME280;38541;48.130;8.378;2024-03-08T01:11:51;92346.09;;;3.18;72.35
52249;BME280;38541;48.130;8.378;2024-03-08T01:14:21;92344.53;;;3.17;72.57
52249;BME280;38541;48.130;8.378;2024-03-08T01:16:49;92336.59;;;3.11;72.56
52249;BME280;38541;48.130;8.378;2024-03-08T01:19:15;92338.19;;;3.12;72.63
52249;BME280;38541;48.130;8.378;2024-03-08T01:21:42;92337.41;;;3.12;72.81
52249;BME280;38541;48.130;8.378;2024-03-08T01:24:08;92326.22;;;3.11;72.53
52249;BME280;38541;48.130;8.378;2024-03-08T01:26:35;92327.25;;;3.10;72.93
52249;BME280;38541;48.130;8.378;2024-03-08T01:29:02;92315.06;;;3.11;72.75
52249;BME280;38541;48.130;8.378;2024-03-08T01:31:30;92318.34;;;3.06;72.30
52249;BME280;38541;48.130;8.378;2024-03-08T01:33:57;92313.38;;;3.05;72.08
52249;BME280;38541;48.130;8.378;2024-03-08T01:36:24;92313.03;;;3.01;71.87
52249;BME280;38541;48.130;8.378;2024-03-08T01:38:51;92307.28;;;2.99;72.21
52249;BME280;38541;48.130;8.378;2024-03-08T01:41:18;92308.88;;;3.00;72.11
52249;BME280;38541;48.130;8.378;2024-03-08T01:43:46;92308.88;;;3.00;72.47
52249;BME280;38541;48.130;8.378;2024-03-08T01:46:15;92304.13;;;2.97;72.75
52249;BME280;38541;48.130;8.378;2024-03-08T01:48:44;92295.19;;;2.93;72.37
52249;BME280;38541;48.130;8.378;2024-03-08T01:51:12;92293.41;;;2.93;72.66
52249;BME280;38541;48.130;8.378;2024-03-08T01:53:39;92284.59;;;2.94;72.48
52249;BME280;38541;48.130;8.378;2024-03-08T01:56:06;92286.19;;;2.95;72.32
52249;BME280;38541;48.130;8.378;2024-03-08T01:58:33;92287.00;;;2.96;72.11
52249;BME280;38541;48.130;8.378;2024-03-08T02:01:01;92275.91;;;2.89;72.40
52249;BME280;38541;48.130;8.378;2024-03-08T02:03:29;92272.75;;;2.87;72.28
52249;BME280;38541;48.130;8.378;2024-03-08T02:05:57;92272.88;;;2.92;72.01
52249;BME280;38541;48.130;8.378;2024-03-08T02:08:25;92269.16;;;2.88;71.68
52249;BME280;38541;48.130;8.378;2024-03-08T02:10:52;92270.53;;;2.78;72.45
52249;BME280;38541;48.130;8.378;2024-03-08T02:13:18;92263.28;;;2.68;71.98
52249;BME280;38541;48.130;8.378;2024-03-08T02:15:56;92262.59;;;2.73;72.61
52249;BME280;38541;48.130;8.378;2024-03-08T02:18:23;92267.38;;;2.76;72.63
52249;BME280;38541;48.130;8.378;2024-03-08T02:20:57;92252.78;;;2.63;71.66
52249;BME280;38541;48.130;8.378;2024-03-08T02:23:24;92250.78;;;2.65;73.05
52249;BME280;38541;48.130;8.378;2024-03-08T02:25:52;92255.16;;;2.65;73.36
52249;BME280;38541;48.130;8.378;2024-03-08T02:28:20;92260.69;;;2.68;72.82
52249;BME280;38541;48.130;8.378;2024-03-08T02:30:47;92247.84;;;2.74;72.84
52249;BME280;38541;48.130;8.378;2024-03-08T02:33:14;92244.03;;;2.76;72.80
52249;BME280;38541;48.130;8.378;2024-03-08T02:35:44;92242.66;;;2.74;72.49
52249;BME280;38541;48.130;8.378;2024-03-08T02:38:15;92243.09;;;2.70;72.89
52249;BME280;38541;48.130;8.378;2024-03-08T02:40:47;92247.03;;;2.73;73.17
52249;BME280;38541;48.130;8.378;2024-03-08T02:43:14;92241.53;;;2.69;73.28
52249;BME280;38541;48.130;8.378;2024-03-08T02:45:41;92228.78;;;2.68;72.65
52249;BME280;38541;48.130;8.378;2024-03-08T02:48:08;92241.84;;;2.73;73.07
52249;BME280;38541;48.130;8.378;2024-03-08T02:50:35;92235.09;;;2.72;73.05
52249;BME280;38541;48.130;8.378;2024-03-08T02:53:03;92235.09;;;2.72;72.42
52249;BME280;38541;48.130;8.378;2024-03-08T02:55:30;92233.50;;;2.71;72.82
52249;BME280;38541;48.130;8.378;2024-03-08T02:57:57;92228.88;;;2.73;72.63
52249;BME280;38541;48.130;8.378;2024-03-08T03:00:23;92224.59;;;2.67;72.67
52249;BME280;38541;48.130;8.378;2024-03-08T03:02:51;92221.00;;;2.68;72.82
52249;BME280;38541;48.130;8.378;2024-03-08T03:05:21;92218.75;;;2.71;72.92
52249;BME280;38541;48.130;8.378;2024-03-08T03:07:47;92214.03;;;2.68;72.75
52249;BME280;38541;48.130;8.378;2024-03-08T03:10:16;92206.47;;;2.67;72.04
52249;BME280;38541;48.130;8.378;2024-03-08T03:12:44;92218.41;;;2.68;72.17
52249;BME280;38541;48.130;8.378;2024-03-08T03:15:12;92214.78;;;2.69;72.79
52249;BME280;38541;48.130;8.378;2024-03-08T03:17:39;92205.22;;;2.69;72.71
52249;BME280;38541;48.130;8.378;2024-03-08T03:20:09;92211.19;;;2.70;72.64
52249;BME280;38541;48.130;8.378;2024-03-08T03:22:36;92202.38;;;2.71;72.84
52249;BME280;38541;48.130;8.378;2024-03-08T03:25:03;92197.66;;;2.68;72.40
52249;BME280;38541;48.130;8.378;2024-03-08T03:27:33;92198.13;;;2.65;72.87
52249;BME280;38541;48.130;8.378;2024-03-08T03:29:59;92199.47;;;2.67;72.84
52249;BME280;38541;48.130;8.378;2024-03-08T03:32:49;92197.91;;;2.66;72.70
52249;BME280;38541;48.130;8.378;2024-03-08T03:35:18;92203.31;;;2.65;72.58
52249;BME280;38541;48.130;8.378;2024-03-08T03:37:47;92201.16;;;2.62;72.83
52249;BME280;38541;48.130;8.378;2024-03-08T03:40:49;92189.44;;;2.59;73.29
52249;BME280;38541;48.130;8.378;2024-03-08T03:43:18;92189.66;;;2.58;72.84
52249;BME280;38541;48.130;8.378;2024-03-08T03:45:45;92190.69;;;2.56;72.96
52249;BME280;38541;48.130;8.378;2024-03-08T03:48:11;92185.50;;;2.56;72.87
52249;BME280;38541;48.130;8.378;2024-03-08T03:50:38;92186.72;;;2.54;73.00
52249;BME280;38541;48.130;8.378;2024-03-08T03:53:06;92181.31;;;2.55;73.24
52249;BME280;38541;48.130;8.378;2024-03-08T03:55:37;92182.31;;;2.54;73.45
52249;BME280;38541;48.130;8.378;2024-03-08T03:58:06;92173.97;;;2.52;73.14
52249;BME280;38541;48.130;8.378;2024-03-08T04:00:32;92178.41;;;2.52;73.58
52249;BME280;38541;48.130;8.378;2024-03-08T04:02:59;92177.59;;;2.51;73.30
52249;BME280;38541;48.130;8.378;2024-03-08T04:05:27;92176.25;;;2.49;73.02
52249;BME280;38541;48.130;8.378;2024-03-08T04:07:54;92166.66;;;2.49;72.88
52249;BME280;38541;48.130;8.378;2024-03-08T04:10:20;92169.59;;;2.53;73.15
52249;BME280;38541;48.130;8.378;2024-03-08T04:12:47;92171.38;;;2.52;73.12
52249;BME280;38541;48.130;8.378;2024-03-08T04:15:14;92168.34;;;2.55;73.32
52249;BME280;38541;48.130;8.378;2024-03-08T04:17:41;92160.34;;;2.57;73.16
52249;BME280;38541;48.130;8.378;2024-03-08T04:20:08;92165.66;;;2.50;72.77
52249;BME280;38541;48.130;8.378;2024-03-08T04:22:37;92167.00;;;2.53;73.52
52249;BME280;38541;48.130;8.378;2024-03-08T04:25:05;92172.41;;;2.51;73.01
52249;BME280;38541;48.130;8.378;2024-03-08T04:27:33;92161.03;;;2.52;73.17
52249;BME280;38541;48.130;8.378;2024-03-08T04:30:00;92158.88;;;2.49;72.95
52249;BME280;38541;48.130;8.378;2024-03-08T04:32:27;92161.94;;;2.46;73.39
52249;BME280;38541;48.130;8.378;2024-03-08T04:34:56;92154.16;;;2.46;73.55
52249;BME280;38541;48.130;8.378;2024-03-08T04:37:23;92164.97;;;2.43;73.21
52249;BME280;38541;48.130;8.378;2024-03-08T04:39:50;92161.03;;;2.40;73.06
52249;BME280;38541;48.130;8.378;2024-03-08T04:42:16;92163.88;;;2.39;73.25
52249;BME280;38541;48.130;8.378;2024-03-08T04:44:44;92159.69;;;2.38;73.54
52249;BME280;38541;48.130;8.378;2024-03-08T04:47:11;92156.50;;;2.36;73.99
52249;BME280;38541;48.130;8.378;2024-03-08T04:49:38;92156.09;;;2.39;74.35
52249;BME280;38541;48.130;8.378;2024-03-08T04:52:05;92155.50;;;2.37;73.56
52249;BME280;38541;48.130;8.378;2024-03-08T04:54:31;92161.84;;;2.41;74.36
52249;BME280;38541;48.130;8.378;2024-03-08T04:56:58;92156.19;;;2.44;73.71
52249;BME280;38541;48.130;8.378;2024-03-08T04:59:27;92156.19;;;2.44;73.57
52249;BME280;38541;48.130;8.378;2024-03-08T05:01:54;92148.41;;;2.44;73.87
52249;BME280;38541;48.130;8.378;2024-03-08T05:04:21;92151.78;;;2.45;73.43
52249;BME280;38541;48.130;8.378;2024-03-08T05:06:47;92148.41;;;2.44;73.47
52249;BME280;38541;48.130;8.378;2024-03-08T05:09:14;92148.88;;;2.41;73.97
52249;BME280;38541;48.130;8.378;2024-03-08T05:11:43;92143.44;;;2.42;73.55
52249;BME280;38541;48.130;8.378;2024-03-08T05:14:11;92147.50;;;2.38;73.63
52249;BME280;38541;48.130;8.378;2024-03-08T05:16:38;92147.28;;;2.40;73.77
52249;BME280;38541;48.130;8.378;2024-03-08T05:19:06;92146.59;;;2.45;73.63
52249;BME280;38541;48.130;8.378;2024-03-08T05:21:33;92140.06;;;2.42;73.80
52249;BME280;38541;48.130;8.378;2024-03-08T05:24:00;92148.63;;;2.42;74.08
52249;BME280;38541;48.130;8.378;2024-03-08T05:26:26;92141.09;;;2.41;73.71
52249;BME280;38541;48.130;8.378;2024-03-08T05:28:53;92142.53;;;2.37;74.48
52249;BME280;38541;48.130;8.378;2024-03-08T05:31:20;92146.50;;;2.27;73.85
52249;BME280;38541;48.130;8.378;2024-03-08T05:33:49;92137.16;;;2.26;74.40
52249;BME280;38541;48.130;8.378;2024-03-08T05:36:16;92130.94;;;2.27;74.29
52249;BME280;38541;48.130;8.378;2024-03-08T05:38:46;92134.75;;;2.25;74.41
52249;BME280;38541;48.130;8.378;2024-03-08T05:41:12;92133.53;;;2.27;74.94
52249;BME280;38541;48.130;8.378;2024-03-08T05:43:40;92131.84;;;2.21;74.60
52249;BME280;38541;48.130;8.378;2024-03-08T05:46:07;92129.47;;;2.20;74.82
52249;BME280;38541;48.130;8.378;2024-03-08T05:48:33;92136.69;;;2.18;74.68
52249;BME280;38541;48.130;8.378;2024-03-08T05:51:00;92136.81;;;2.11;74.72
52249;BME280;38541;48.130;8.378;2024-03-08T05:53:29;92128.00;;;1.88;74.50
52249;BME280;38541;48.130;8.378;2024-03-08T05:55:58;92131.16;;;1.90;75.63
52249;BME280;38541;48.130;8.378;2024-03-08T05:58:25;92130.94;;;2.04;75.39
52249;BME280;38541;48.130;8.378;2024-03-08T06:00:51;92125.97;;;2.14;75.46
52249;BME280;38541;48.130;8.378;2024-03-08T06:03:19;92132.41;;;2.11;74.78
52249;BME280;38541;48.130;8.378;2024-03-08T06:05:48;92129.59;;;2.13;74.60
52249;BME280;38541;48.130;8.378;2024-03-08T06:08:16;92134.78;;;2.13;74.63
52249;BME280;38541;48.130;8.378;2024-03-08T06:10:42;92138.38;;;2.12;74.87
52249;BME280;38541;48.130;8.378;2024-03-08T06:13:09;92132.84;;;2.08;74.87
52249;BME280;38541;48.130;8.378;2024-03-08T06:15:38;92131.28;;;2.07;75.21
52249;BME280;38541;48.130;8.378;2024-03-08T06:18:05;92129.38;;;2.03;75.39
52249;BME280;38541;48.130;8.378;2024-03-08T06:20:32;92128.56;;;2.02;75.18
52249;BME280;38541;48.130;8.378;2024-03-08T06:22:59;92129.59;;;2.13;75.49
52249;BME280;38541;48.130;8.378;2024-03-08T06:25:26;92122.94;;;2.17;75.14
52249;BME280;38541;48.130;8.378;2024-03-08T06:27:52;92128.34;;;2.16;74.72
52249;BME280;38541;48.130;8.378;2024-03-08T06:30:19;92131.84;;;2.21;74.87
52249;BME280;38541;48.130;8.378;2024-03-08T06:32:47;92129.81;;;2.23;74.48
52249;BME280;38541;48.130;8.378;2024-03-08T06:35:14;92128.81;;;2.24;74.63
52249;BME280;38541;48.130;8.378;2024-03-08T06:37:42;92125.66;;;2.22;74.39
52249;BME280;38541;48.130;8.378;2024-03-08T06:40:11;92123.06;;;2.22;74.13
52249;BME280;38541;48.130;8.378;2024-03-08T06:42:40;92130.59;;;2.24;74.48
52249;BME280;38541;48.130;8.378;2024-03-08T06:45:08;92135.00;;;2.23;74.16
52249;BME280;38541;48.130;8.378;2024-03-08T06:47:36;92130.59;;;2.24;74.31
52249;BME280;38541;48.130;8.378;2024-03-08T06:50:04;92138.63;;;2.22;74.51
52249;BME280;38541;48.130;8.378;2024-03-08T06:52:30;92135.47;;;2.20;74.37
52249;BME280;38541;48.130;8.378;2024-03-08T06:54:57;92134.44;;;2.21;74.25
52249;BME280;38541;48.130;8.378;2024-03-08T06:57:24;92135.47;;;2.20;75.02
52249;BME280;38541;48.130;8.378;2024-03-08T06:59:51;92131.31;;;2.19;74.91
52249;BME280;38541;48.130;8.378;2024-03-08T07:02:19;92130.72;;;2.17;74.30
52249;BME280;38541;48.130;8.378;2024-03-08T07:04:45;92128.81;;;2.24;74.84
52249;BME280;38541;48.130;8.378;2024-03-08T07:07:12;92130.50;;;2.31;74.57
52249;BME280;38541;48.130;8.378;2024-03-08T07:09:38;92127.44;;;2.34;74.64
52249;BME280;38541;48.130;8.378;2024-03-08T07:12:05;92126.78;;;2.38;74.34
52249;BME280;38541;48.130;8.378;2024-03-08T07:14:32;92127.13;;;2.42;74.43
52249;BME280;38541;48.130;8.378;2024-03-08T07:16:59;92118.31;;;2.43;74.38
52249;BME280;38541;48.130;8.378;2024-03-08T07:19:27;92123.50;;;2.43;74.47
52249;BME280;38541;48.130;8.378;2024-03-08T07:21:53;92111.78;;;2.40;73.98
52249;BME280;38541;48.130;8.378;2024-03-08T07:24:21;92117.97;;;2.39;73.73
52249;BME280;38541;48.130;8.378;2024-03-08T07:26:59;92110.44;;;2.38;73.91
52249;BME280;38541;48.130;8.378;2024-03-08T07:29:26;92107.72;;;2.33;73.68
52249;BME280;38541;48.130;8.378;2024-03-08T07:31:52;92111.56;;;2.42;74.29
52249;BME280;38541;48.130;8.378;2024-03-08T07:34:45;92101.84;;;2.49;73.99
52249;BME280;38541;48.130;8.378;2024-03-08T07:37:12;92101.06;;;2.49;73.58
52249;BME280;38541;48.130;8.378;2024-03-08T07:39:38;92104.34;;;2.44;73.50
52249;BME280;38541;48.130;8.378;2024-03-08T07:42:05;92097.78;;;2.53;73.09
52249;BME280;38541;48.130;8.378;2024-03-08T07:44:32;92101.50;;;2.58;72.91
52249;BME280;38541;48.130;8.378;2024-03-08T07:46:59;92098.47;;;2.61;73.27
52249;BME280;38541;48.130;8.378;2024-03-08T07:49:26;92099.91;;;2.68;72.91
52249;BME280;38541;48.130;8.378;2024-03-08T07:51:52;92102.81;;;2.72;73.15
52249;BME280;38541;48.130;8.378;2024-03-08T07:54:19;92105.53;;;2.77;72.62
52249;BME280;38541;48.130;8.378;2024-03-08T07:56:46;92098.38;;;2.84;73.42
52249;BME280;38541;48.130;8.378;2024-03-08T07:59:13;92091.16;;;2.87;73.01
52249;BME280;38541;48.130;8.378;2024-03-08T08:01:39;92095.75;;;2.96;73.49
52249;BME280;38541;48.130;8.378;2024-03-08T08:04:06;92086.06;;;2.92;71.76
52249;BME280;38541;48.130;8.378;2024-03-08T08:06:33;92084.91;;;2.99;72.38
52249;BME280;38541;48.130;8.378;2024-03-08T08:08:59;92092.69;;;2.99;72.53
52249;BME280;38541;48.130;8.378;2024-03-08T08:11:27;92097.88;;;2.99;72.27
52249;BME280;38541;48.130;8.378;2024-03-08T08:13:55;92095.16;;;3.06;72.20
52249;BME280;38541;48.130;8.378;2024-03-08T08:16:24;92091.47;;;3.02;72.05
52249;BME280;38541;48.130;8.378;2024-03-08T08:18:52;92086.81;;;3.04;71.83
52249;BME280;38541;48.130;8.378;2024-03-08T08:21:19;92080.69;;;3.10;72.49
52249;BME280;38541;48.130;8.378;2024-03-08T08:23:45;92085.88;;;3.10;71.95
52249;BME280;38541;48.130;8.378;2024-03-08T08:26:12;92080.88;;;3.21;72.74
52249;BME280;38541;48.130;8.378;2024-03-08T08:28:39;92075.47;;;3.22;72.28
52249;BME280;38541;48.130;8.378;2024-03-08T08:31:07;92077.91;;;3.29;72.10
52249;BME280;38541;48.130;8.378;2024-03-08T08:33:34;92079.34;;;3.37;72.24
52249;BME280;38541;48.130;8.378;2024-03-08T08:36:01;92078.16;;;3.45;71.66
52249;BME280;38541;48.130;8.378;2024-03-08T08:38:29;92068.81;;;3.43;71.88
52249;BME280;38541;48.130;8.378;2024-03-08T08:40:56;92061.56;;;3.46;71.04
52249;BME280;38541;48.130;8.378;2024-03-08T08:43:22;92060.66;;;3.52;71.43
52249;BME280;38541;48.130;8.378;2024-03-08T08:45:51;92062.13;;;3.48;71.25
52249;BME280;38541;48.130;8.378;2024-03-08T08:48:21;92065.09;;;3.56;71.11
52249;BME280;38541;48.130;8.378;2024-03-08T08:50:47;92065.22;;;3.62;70.92
52249;BME280;38541;48.130;8.378;2024-03-08T08:53:14;92063.63;;;3.78;70.82
52249;BME280;38541;48.130;8.378;2024-03-08T08:55:41;92069.19;;;4.04;70.53
52249;BME280;38541;48.130;8.378;2024-03-08T08:58:07;92072.44;;;4.11;70.06
52249;BME280;38541;48.130;8.378;2024-03-08T09:00:34;92068.31;;;4.15;69.97
52249;BME280;38541;48.130;8.378;2024-03-08T09:03:01;92071.63;;;4.27;70.55
52249;BME280;38541;48.130;8.378;2024-03-08T09:05:28;92067.34;;;4.38;69.90
52249;BME280;38541;48.130;8.378;2024-03-08T09:07:55;92065.78;;;4.37;69.90
52249;BME280;38541;48.130;8.378;2024-03-08T09:10:22;92062.75;;;4.46;69.08
52249;BME280;38541;48.130;8.378;2024-03-08T09:12:55;92058.88;;;4.48;69.37
52249;BME280;38541;48.130;8.378;2024-03-08T09:15:22;92063.34;;;4.53;68.87
52249;BME280;38541;48.130;8.378;2024-03-08T09:17:48;92052.22;;;4.57;69.02
52249;BME280;38541;48.130;8.378;2024-03-08T09:20:15;92054.88;;;4.63;68.61
52249;BME280;38541;48.130;8.378;2024-03-08T09:22:45;92049.25;;;4.71;69.25
52249;BME280;38541;48.130;8.378;2024-03-08T09:25:12;92046.22;;;4.79;68.72
52249;BME280;38541;48.130;8.378;2024-03-08T09:27:39;92048.09;;;4.84;68.43
52249;BME280;38541;48.130;8.378;2024-03-08T09:30:06;92044.38;;;5.02;68.47
52249;BME280;38541;48.130;8.378;2024-03-08T09:32:34;92050.41;;;5.08;67.74
52249;BME280;38541;48.130;8.378;2024-03-08T09:35:01;92052.75;;;5.04;67.60
52249;BME280;38541;48.130;8.378;2024-03-08T09:37:28;92048.34;;;5.10;67.51
52249;BME280;38541;48.130;8.378;2024-03-08T09:39:54;92041.25;;;5.27;67.29
52249;BME280;38541;48.130;8.378;2024-03-08T09:42:21;92038.41;;;5.29;66.60
52249;BME280;38541;48.130;8.378;2024-03-08T09:44:47;92041.25;;;5.27;66.49
52249;BME280;38541;48.130;8.378;2024-03-08T09:47:14;92041.31;;;5.33;66.50
52249;BME280;38541;48.130;8.378;2024-03-08T09:49:41;92036.50;;;5.52;66.49
52249;BME280;38541;48.130;8.378;2024-03-08T09:52:10;92037.34;;;5.57;65.76
52249;BME280;38541;48.130;8.378;2024-03-08T09:54:37;92030.03;;;5.54;66.06
52249;BME280;38541;48.130;8.378;2024-03-08T09:57:04;92032.88;;;5.53;65.46
52249;BME280;38541;48.130;8.378;2024-03-08T09:59:30;92027.13;;;5.51;65.68
52249;BME280;38541;48.130;8.378;2024-03-08T10:02:02;92020.16;;;5.62;66.23
52249;BME280;38541;48.130;8.378;2024-03-08T10:04:29;92020.53;;;5.76;65.52
52249;BME280;38541;48.130;8.378;2024-03-08T10:06:58;92017.25;;;5.91;65.38
52249;BME280;38541;48.130;8.378;2024-03-08T10:09:25;92014.34;;;5.87;64.82
52249;BME280;38541;48.130;8.378;2024-03-08T10:11:56;92009.38;;;5.85;64.54
52249;BME280;38541;48.130;8.378;2024-03-08T10:14:27;92006.66;;;6.03;65.22
52249;BME280;38541;48.130;8.378;2024-03-08T10:16:54;92003.63;;;6.16;65.29
52249;BME280;38541;48.130;8.378;2024-03-08T10:19:20;92003.13;;;6.19;63.83
52249;BME280;38541;48.130;8.378;2024-03-08T10:21:50;91993.78;;;6.34;64.00
52249;BME280;38541;48.130;8.378;2024-03-08T10:24:19;91989.66;;;6.43;63.57
52249;BME280;38541;48.130;8.378;2024-03-08T10:26:46;91983.44;;;6.54;63.85
52249;BME280;38541;48.130;8.378;2024-03-08T10:29:14;91989.72;;;6.69;63.71
52249;BME280;38541;48.130;8.378;2024-03-08T10:31:45;91986.13;;;6.80;62.86
52249;BME280;38541;48.130;8.378;2024-03-08T10:34:12;91987.22;;;6.95;63.18
52249;BME280;38541;48.130;8.378;2024-03-08T10:36:39;91984.59;;;7.10;62.69
52249;BME280;38541;48.130;8.378;2024-03-08T10:39:21;91983.56;;;7.06;61.96
52249;BME280;38541;48.130;8.378;2024-03-08T10:41:53;91977.84;;;7.20;62.05
52249;BME280;38541;48.130;8.378;2024-03-08T10:47:07;91969.44;;;7.02;62.81
52249;BME280;38541;48.130;8.378;2024-03-08T10:49:50;91963.75;;;7.41;62.96
52249;BME280;38541;48.130;8.378;2024-03-08T10:52:18;91974.44;;;7.50;62.08
52249;BME280;38541;48.130;8.378;2024-03-08T10:54:47;91973.16;;;7.53;61.25
52249;BME280;38541;48.130;8.378;2024-03-08T10:57:17;91976.25;;;7.91;62.34
52249;BME280;38541;48.130;8.378;2024-03-08T10:59:47;91974.44;;;7.97;61.44
52249;BME280;38541;48.130;8.378;2024-03-08T11:02:17;91970.19;;;8.17;61.96
52249;BME280;38541;48.130;8.378;2024-03-08T11:04:49;91968.09;;;8.19;60.85
52249;BME280;38541;48.130;8.378;2024-03-08T11:07:16;91977.72;;;8.34;61.89
52249;BME280;38541;48.130;8.378;2024-03-08T11:09:49;91974.31;;;8.38;60.70
52249;BME280;38541;48.130;8.378;2024-03-08T11:12:28;91979.84;;;8.21;59.94
52249;BME280;38541;48.130;8.378;2024-03-08T11:15:03;91973.59;;;8.17;59.75
52249;BME280;38541;48.130;8.378;2024-03-08T11:20:14;91969.69;;;8.04;61.29
52249;BME280;38541;48.130;8.378;2024-03-08T11:22:52;91965.94;;;8.31;61.22
52249;BME280;38541;48.130;8.378;2024-03-08T11:33:39;91953.25;;;8.69;60.69
52249;BME280;38541;48.130;8.378;2024-03-08T11:36:11;91942.50;;;8.76;59.64
52249;BME280;38541;48.130;8.378;2024-03-08T11:38:42;91945.00;;;8.97;59.36
52249;BME280;38541;48.130;8.378;2024-03-08T11:41:10;91942.88;;;9.04;59.38
52249;BME280;38541;48.130;8.378;2024-03-08T11:43:44;91929.97;;;9.13;59.88
52249;BME280;38541;48.130;8.378;2024-03-08T11:46:12;91929.88;;;9.28;58.42
52249;BME280;38541;48.130;8.378;2024-03-08T11:48:40;91935.28;;;9.37;58.92
52249;BME280;38541;48.130;8.378;2024-03-08T11:51:14;91920.53;;;9.47;57.63
52249;BME280;38541;48.130;8.378;2024-03-08T11:53:41;91919.72;;;9.51;57.08
52249;BME280;38541;48.130;8.378;2024-03-08T11:56:13;91917.41;;;9.74;57.69
52249;BME280;38541;48.130;8.378;2024-03-08T11:58:41;91919.00;;;9.99;57.23
52249;BME280;38541;48.130;8.378;2024-03-08T12:01:11;91903.22;;;10.05;56.87
52249;BME280;38541;48.130;8.378;2024-03-08T12:03:43;91896.50;;;10.18;57.12
52249;BME280;38541;48.130;8.378;2024-03-08T12:06:10;91895.66;;;10.22;56.83
52249;BME280;38541;48.130;8.378;2024-03-08T12:08:37;91893.53;;;10.24;54.33
52249;BME280;38541;48.130;8.378;2024-03-08T12:11:04;91882.06;;;10.45;55.67
52249;BME280;38541;48.130;8.378;2024-03-08T12:13:33;91879.91;;;10.47;54.59
52249;BME280;38541;48.130;8.378;2024-03-08T12:16:04;91885.16;;;10.66;54.85
52249;BME280;38541;48.130;8.378;2024-03-08T12:18:35;91882.69;;;10.94;55.15
52249;BME280;38541;48.130;8.378;2024-03-08T12:21:09;91885.38;;;10.89;53.04
52249;BME280;38541;48.130;8.378;2024-03-08T12:23:40;91885.16;;;11.04;55.21
52249;BME280;38541;48.130;8.378;2024-03-08T12:26:23;91879.47;;;11.16;54.46
52249;BME280;38541;48.130;8.378;2024-03-08T12:28:50;91869.56;;;11.27;53.61
52249;BME280;38541;48.130;8.378;2024-03-08T12:31:17;91866.06;;;11.51;54.26
52249;BME280;38541;48.130;8.378;2024-03-08T12:33:49;91862.09;;;11.67;54.66
52249;BME280;38541;48.130;8.378;2024-03-08T12:36:19;91867.38;;;11.95;53.18
52249;BME280;38541;48.130;8.378;2024-03-08T12:38:47;91863.28;;;11.89;52.25
52249;BME280;38541;48.130;8.378;2024-03-08T12:41:17;91865.66;;;12.05;51.73
52249;BME280;38541;48.130;8.378;2024-03-08T12:43:45;91863.22;;;12.22;51.56
52249;BME280;38541;48.130;8.378;2024-03-08T12:48:43;91860.41;;;12.05;51.28
52249;BME280;38541;48.130;8.378;2024-03-08T12:51:14;91855.69;;;12.30;49.42
52249;BME280;38541;48.130;8.378;2024-03-08T12:53:42;91849.84;;;12.33;50.45
52249;BME280;38541;48.130;8.378;2024-03-08T12:56:10;91850.56;;;12.61;51.24
52249;BME280;38541;48.130;8.378;2024-03-08T12:58:37;91851.13;;;12.72;50.54
52249;BME280;38541;48.130;8.378;2024-03-08T13:01:05;91844.09;;;12.81;48.31
52249;BME280;38541;48.130;8.378;2024-03-08T13:03:34;91843.38;;;12.90;48.79
52249;BME280;38541;48.130;8.378;2024-03-08T13:06:05;91839.91;;;13.03;49.13
52249;BME280;38541;48.130;8.378;2024-03-08T13:08:38;91831.63;;;13.19;49.02
52249;BME280;38541;48.130;8.378;2024-03-08T13:11:07;91835.28;;;13.32;47.60
52249;BME280;38541;48.130;8.378;2024-03-08T13:13:34;91836.19;;;13.50;48.82
52249;BME280;38541;48.130;8.378;2024-03-08T13:16:07;91831.28;;;13.57;48.28
52249;BME280;38541;48.130;8.378;2024-03-08T13:18:37;91823.72;;;13.73;46.50
52249;BME280;38541;48.130;8.378;2024-03-08T13:21:04;91814.63;;;13.88;47.47
52249;BME280;38541;48.130;8.378;2024-03-08T13:23:34;91803.78;;;13.98;46.53
52249;BME280;38541;48.130;8.378;2024-03-08T13:26:13;91804.72;;;14.03;47.14
52249;BME280;38541;48.130;8.378;2024-03-08T13:28:43;91808.34;;;14.16;47.36
52249;BME280;38541;48.130;8.378;2024-03-08T13:31:11;91800.28;;;14.30;46.44